createdAt,value
2023-07-12T00:04:01.103Z,22.93
2023-07-12T00:09:05.507Z,23.25
2023-07-12T00:14:10.521Z,23.26
2023-07-12T00:19:15.961Z,23.22
2023-07-12T00:24:19.521Z,23.16
2023-07-12T00:29:24.358Z,23.15
2023-07-12T00:34:27.897Z,23.01
2023-07-12T00:39:34.172Z,23.07
2023-07-12T00:44:47.054Z,23.13
2023-07-12T00:49:52.920Z,22.79
2023-07-12T00:54:59.363Z,22.89
2023-07-12T01:00:12.254Z,22.91
2023-07-12T01:05:17.890Z,22.66
2023-07-12T01:10:21.342Z,22.63
2023-07-12T01:15:27.130Z,22.78
2023-07-12T01:20:37.682Z,23.11
2023-07-12T01:25:44.139Z,23.26
2023-07-12T01:30:48.195Z,22.30
2023-07-12T01:35:51.856Z,22.99
2023-07-12T01:40:56.898Z,22.98
2023-07-12T01:46:00.682Z,22.70
2023-07-12T01:51:04.920Z,22.75
2023-07-12T01:56:09.971Z,22.40
2023-07-12T02:01:14.112Z,22.67
2023-07-12T02:06:17.894Z,22.75
2023-07-12T02:11:23.510Z,22.37
2023-07-12T02:16:27.555Z,22.71
2023-07-12T02:21:31.868Z,22.08
2023-07-12T02:26:37.326Z,22.62
2023-07-12T02:31:40.908Z,22.77
2023-07-12T02:36:44.918Z,22.69
2023-07-12T02:41:50.658Z,22.82
2023-07-12T02:46:54.687Z,22.71
2023-07-12T02:51:58.472Z,22.71
2023-07-12T02:57:09.733Z,22.68
2023-07-12T03:02:14.985Z,22.79
2023-07-12T03:07:19.068Z,21.91
2023-07-12T03:12:24.320Z,22.43
2023-07-12T03:17:28.297Z,22.15
2023-07-12T03:22:32.133Z,22.47
2023-07-12T03:27:37.625Z,22.06
2023-07-12T03:32:41.923Z,21.56
2023-07-12T03:37:46.046Z,21.95
2023-07-12T03:42:51.110Z,22.51
2023-07-12T03:47:54.602Z,22.22
2023-07-12T03:52:58.223Z,21.30
2023-07-12T03:58:03.592Z,22.46
2023-07-12T04:03:07.180Z,22.48
2023-07-12T04:08:12.916Z,22.27
2023-07-12T04:13:18.315Z,22.04
2023-07-12T04:18:22.405Z,21.63
2023-07-12T04:23:26.444Z,21.99
2023-07-12T04:28:33.194Z,22.58
2023-07-12T04:33:37.259Z,22.55
2023-07-12T04:38:41.226Z,22.29
2023-07-12T04:43:46.159Z,22.64
2023-07-12T04:48:50.407Z,22.43
2023-07-12T04:53:55.672Z,20.77
2023-07-12T04:59:01.567Z,22.67
2023-07-12T05:04:06.669Z,21.76
2023-07-12T05:09:11.210Z,22.77
2023-07-12T05:14:17.660Z,22.70
2023-07-12T05:19:21.688Z,22.77
2023-07-12T05:24:26.228Z,22.76
2023-07-12T05:29:35.428Z,22.97
2023-07-12T05:34:39.535Z,23.12
2023-07-12T05:39:43.444Z,23.02
2023-07-12T05:44:48.951Z,22.68
2023-07-12T05:49:56.746Z,23.23
2023-07-12T05:55:01.862Z,23.19
2023-07-12T06:00:10.207Z,23.28
2023-07-12T06:05:15.159Z,23.39
2023-07-12T06:10:20.012Z,23.45
2023-07-12T06:15:26.118Z,23.54
2023-07-12T06:20:30.280Z,23.58
2023-07-12T06:25:34.415Z,23.57
2023-07-12T06:30:39.818Z,23.11
2023-07-12T06:35:44.002Z,23.47
2023-07-12T06:40:49.678Z,23.46
2023-07-12T06:45:56.666Z,23.73
2023-07-12T06:51:03.821Z,23.81
2023-07-12T06:56:08.282Z,23.95
2023-07-12T07:01:14.862Z,23.25
2023-07-12T07:06:21.813Z,24.19
2023-07-12T07:11:25.803Z,24.41
2023-07-12T07:16:31.730Z,24.45
2023-07-12T07:21:35.900Z,24.03
2023-07-12T07:26:40.398Z,24.79
2023-07-12T07:31:46.410Z,24.76
2023-07-12T07:36:50.704Z,24.96
2023-07-12T07:41:54.656Z,25.29
2023-07-12T07:47:00.710Z,25.49
2023-07-12T07:52:05.518Z,25.59
2023-07-12T07:57:10.151Z,25.78
2023-07-12T08:02:15.990Z,25.68
2023-07-12T08:07:20.377Z,26.09
2023-07-12T08:12:24.667Z,26.15
2023-07-12T08:17:31.283Z,25.98
2023-07-12T08:22:35.519Z,25.84
2023-07-12T08:27:40.930Z,26.19
2023-07-12T08:32:46.614Z,26.72
2023-07-12T08:37:51.099Z,26.70
2023-07-12T08:42:55.070Z,26.40
2023-07-12T08:48:05.415Z,27.18
2023-07-12T08:53:11.954Z,26.85
2023-07-12T08:58:21.602Z,27.62
2023-07-12T09:03:27.638Z,26.91
2023-07-12T09:08:36.321Z,27.22
2023-07-12T09:13:41.869Z,27.63
2023-07-12T09:18:50.508Z,27.55
2023-07-12T09:23:57.111Z,28.04
2023-07-12T09:29:07.916Z,27.94
2023-07-12T09:34:22.107Z,28.43
2023-07-12T09:39:27.368Z,27.39
2023-07-12T09:44:32.736Z,28.21
2023-07-12T09:49:46.167Z,28.66
2023-07-12T09:54:55.662Z,28.47
2023-07-12T10:00:06.072Z,28.80
2023-07-12T10:05:18.798Z,28.25
2023-07-12T10:10:33.867Z,28.45
2023-07-12T10:15:42.310Z,28.16
2023-07-12T10:20:49.037Z,28.67
2023-07-12T10:25:58.989Z,28.68
2023-07-12T10:31:11.591Z,27.89
2023-07-12T10:36:21.505Z,28.60
2023-07-12T10:41:29.821Z,28.83
2023-07-12T10:46:38.737Z,28.43
2023-07-12T10:51:47.214Z,28.75
2023-07-12T10:56:54.913Z,28.94
2023-07-12T11:02:11.364Z,28.87
2023-07-12T11:07:37.723Z,29.01
2023-07-12T11:12:48.201Z,28.93
2023-07-12T11:18:01.197Z,29.20
2023-07-12T11:23:32.212Z,29.38
2023-07-12T11:28:44.398Z,29.07
2023-07-12T11:33:52.559Z,29.62
2023-07-12T11:38:59.996Z,29.64
2023-07-12T11:44:06.823Z,29.63
2023-07-12T11:49:18.305Z,29.98
2023-07-12T11:54:26.648Z,30.33
2023-07-12T11:59:33.907Z,30.43
2023-07-12T12:04:37.802Z,28.50
2023-07-12T12:09:47.549Z,30.56
2023-07-12T12:14:53.364Z,30.01
2023-07-12T12:20:05.646Z,30.10
2023-07-12T12:25:20.684Z,30.16
2023-07-12T12:30:27.920Z,30.32
2023-07-12T12:35:32.652Z,30.52
2023-07-12T12:40:55.364Z,30.76
2023-07-12T13:03:25.679Z,30.81
2023-07-12T13:17:33.368Z,30.02
2023-07-12T13:22:45.174Z,30.51
2023-07-12T13:27:58.053Z,30.07
2023-07-12T13:33:04.718Z,30.78
2023-07-12T13:48:29.541Z,30.75
2023-07-12T13:53:34.555Z,30.87
2023-07-12T13:59:02.150Z,30.85
2023-07-12T14:04:06.786Z,30.87
2023-07-12T14:09:13.748Z,30.59
2023-07-12T14:14:22.682Z,30.59
2023-07-12T14:19:26.962Z,30.69
2023-07-12T14:24:32.374Z,30.82
2023-07-12T14:34:49.314Z,30.61
2023-07-12T14:39:55.936Z,29.99
2023-07-12T14:45:05.913Z,30.52
2023-07-12T14:50:14.158Z,30.50
2023-07-12T14:55:21.421Z,30.28
2023-07-12T15:00:28.119Z,30.35
2023-07-12T15:05:33.725Z,30.17
2023-07-12T15:10:38.675Z,30.15
2023-07-12T15:15:44.307Z,30.48
2023-07-12T15:20:53.456Z,30.03
2023-07-12T15:25:58.146Z,30.10
2023-07-12T15:31:07.194Z,30.18
2023-07-12T15:36:12.967Z,29.91
2023-07-12T15:41:20.481Z,29.66
2023-07-12T15:46:28.768Z,30.03
2023-07-12T15:51:38.419Z,30.02
2023-07-12T15:56:46.112Z,29.84
2023-07-12T16:01:52.805Z,29.52
2023-07-12T16:06:57.696Z,29.58
2023-07-12T16:12:01.514Z,28.64
2023-07-12T16:17:08.042Z,29.50
2023-07-12T16:22:16.634Z,29.08
2023-07-12T16:27:23.409Z,29.08
2023-07-12T16:32:30.081Z,28.92
2023-07-12T16:37:33.684Z,28.56
2023-07-12T16:42:37.197Z,28.98
2023-07-12T16:47:42.964Z,28.67
2023-07-12T16:52:47.749Z,28.74
2023-07-12T16:57:52.075Z,28.91
2023-07-12T17:02:58.030Z,28.90
2023-07-12T17:08:02.095Z,28.71
2023-07-12T17:13:16.102Z,28.13
2023-07-12T17:18:21.849Z,28.56
2023-07-12T17:23:28.617Z,28.52
2023-07-12T17:28:33.367Z,28.08
2023-07-12T17:33:39.385Z,28.09
2023-07-12T17:38:43.378Z,28.38
2023-07-12T17:43:47.284Z,28.30
2023-07-12T17:48:53.504Z,28.07
2023-07-12T17:53:57.679Z,27.49
2023-07-12T17:59:02.015Z,28.13
2023-07-12T18:04:07.518Z,27.85
2023-07-12T18:09:11.643Z,28.05
2023-07-12T18:14:18.395Z,28.03
2023-07-12T18:19:24.184Z,27.82
2023-07-12T18:24:28.145Z,27.33
2023-07-12T18:29:32.496Z,27.70
2023-07-12T18:34:38.853Z,27.35
2023-07-12T18:39:44.426Z,27.28
2023-07-12T18:44:48.525Z,26.98
2023-07-12T18:49:57.297Z,27.30
2023-07-12T18:55:01.898Z,26.99
2023-07-12T19:00:08.301Z,26.53
2023-07-12T19:05:22.339Z,27.10
2023-07-12T19:10:33.771Z,26.80
2023-07-12T19:15:39.719Z,26.59
2023-07-12T19:20:45.465Z,26.50
2023-07-12T19:25:49.803Z,25.96
2023-07-12T19:30:54.305Z,25.61
2023-07-12T19:35:59.694Z,24.93
2023-07-12T19:41:03.288Z,25.64
2023-07-12T19:46:08.010Z,25.54
2023-07-12T19:51:19.142Z,25.52
2023-07-12T19:56:23.618Z,25.38
2023-07-12T20:01:29.723Z,25.26
2023-07-12T20:06:36.101Z,25.25
2023-07-12T20:11:42.651Z,24.76
2023-07-12T20:16:46.718Z,24.88
2023-07-12T20:21:52.409Z,23.80
2023-07-12T20:26:57.346Z,24.05
2023-07-12T20:32:04.645Z,25.20
2023-07-12T20:37:10.743Z,25.27
2023-07-12T20:42:21.228Z,25.21
2023-07-12T20:47:27.623Z,25.07
2023-07-12T20:52:33.679Z,25.20
2023-07-12T20:57:39.616Z,24.95
2023-07-12T21:02:44.436Z,24.92
2023-07-12T21:07:49.988Z,25.02
2023-07-12T21:12:53.821Z,23.45
2023-07-12T21:17:57.774Z,24.88
2023-07-12T21:23:02.843Z,24.20
2023-07-12T21:28:07.023Z,24.96
2023-07-12T21:33:11.223Z,24.45
2023-07-12T21:38:17.153Z,25.03
2023-07-12T21:43:21.629Z,24.84
2023-07-12T21:48:25.755Z,23.52
2023-07-12T21:53:31.235Z,24.46
2023-07-12T21:58:35.199Z,24.31
2023-07-12T22:03:39.143Z,23.96
2023-07-12T22:08:44.246Z,24.22
2023-07-12T22:13:50.914Z,24.04
2023-07-12T22:18:54.653Z,24.30
2023-07-12T22:23:59.610Z,24.32
2023-07-12T22:29:03.547Z,23.57
2023-07-12T22:34:06.996Z,24.06
2023-07-12T22:39:12.204Z,23.91
2023-07-12T22:44:16.075Z,23.27
2023-07-12T22:49:19.903Z,23.22
2023-07-12T22:54:25.017Z,23.59
2023-07-12T22:59:28.471Z,23.49
2023-07-12T23:04:32.019Z,23.18
2023-07-12T23:09:37.135Z,22.52
2023-07-12T23:14:40.606Z,21.96
2023-07-12T23:19:44.136Z,22.60
2023-07-12T23:24:54.384Z,22.37
2023-07-12T23:29:58.240Z,22.47
2023-07-12T23:35:03.358Z,22.46
2023-07-12T23:40:10.434Z,22.45
2023-07-12T23:45:14.014Z,22.37
2023-07-12T23:50:19.084Z,22.04
2023-07-12T23:55:24.097Z,22.29
